Aérodrome :
LOGIN :

S'inscrire | Disclaimer

   EN    FR    IT 

 










Légende :    VFR   VFR Marginal   IFR   IFR Intensif   IFR Très Intensif
Visi : 
Plafond : 
>= 8 km
>= 3000ft
5 à 8 km
1000 à 3000 ft
1500m à 5 km
500 à 1000 ft
800 à 1500m
200 à 500 ft
< 800m
< 200 ft
Symboles :   Orages  Brouillard  Fortes neiges  Fortes précipitations  Vent > 20 kt
SIGMETs :   Divers  Orages  Givrage  Turbulence  Onde Orograph.  Cendres Volcan.






- Altitude de l'aérodrome : 237 ft
- Code IATA : MJF


ENMS - Mosjøen , Kjærstad

DERNIER METAR :
  • 221750Z VRB01KT 9999 FEW040 BKN100 06/04 Q0999 RMK WIND 412FT VRB02KT

METARs EXPIRÉS :
  • 221720Z VRB02KT 9999 FEW040 BKN090 07/04 Q1000 RMK WIND 412FT VRB02KT
  • 221650Z VRB01KT 9999 FEW040 BKN090 07/04 Q1000 RMK WIND 412FT VRB02KT
  • 221620Z VRB01KT 9999 FEW040 BKN090 08/04 Q1000 RMK WIND 412FT VRB02KT
  • 221550Z 19003KT 9999 FEW040 BKN090 08/04 Q1001 RMK WIND 412FT VRB02KT
  • 221520Z 17003KT 140V200 9999 FEW030 BKN090 09/02 Q1001 RMK WIND 412FT VRB02KT

TAF N/A



MET'MAP, la Météo Aéronautique d'un coup d'oeil ! - Copyright ORBIFLY Décembre 2007 - Disclaimer

ORBIFLY MET'MAP TEAM :

Programmation & Développement : Alexandra Zaïnal
Sur une idée originale de : Baudouin d'Aumeries
Assistance à la programmation : Marc-Olivier Méhu
Soutien technique & logistique : Manuel Goepfert

Contact : metmap@orbifly.com




SOURCES & CREDITS :

   NOAA